Time;durP1;ratioP1;P1;durP2;ratioP2;P2;SDS_P1;SDS_P2;PMS_P1;PMS_P2;Temp;Humidity;BMP_temperature;BMP_pressure;BME280_temperature;BME280_humidity;BME280_pressure;Samples;Min_cycle;Max_cycle;Signal;HPM_P1;HPM_P2
2023/08/07 00:01:57;;;;;;;4.90;1.50;;;15.90;99.90;;;;;;4963142;28;20591;-73
2023/08/07 00:04:23;;;;;;;6.17;1.40;;;15.90;99.90;;;;;;4974931;28;20179;-73
2023/08/07 00:06:48;;;;;;;7.17;1.33;;;15.90;99.90;;;;;;4973592;28;20207;-73
2023/08/07 00:09:14;;;;;;;8.07;1.77;;;15.80;99.90;;;;;;4973348;28;20175;-73
2023/08/07 00:11:40;;;;;;;3.27;1.70;;;15.80;99.90;;;;;;4973266;28;20194;-74
2023/08/07 00:14:05;;;;;;;4.33;1.77;;;15.80;99.90;;;;;;4965225;28;21241;-74
2023/08/07 00:16:31;;;;;;;5.90;1.90;;;15.70;99.90;;;;;;4973487;28;20199;-73
2023/08/07 00:18:57;;;;;;;5.03;1.87;;;15.70;99.90;;;;;;4974950;28;20175;-74
2023/08/07 00:21:23;;;;;;;7.73;1.80;;;15.60;99.90;;;;;;4974841;28;20189;-73
2023/08/07 00:23:49;;;;;;;5.77;2.10;;;15.60;99.90;;;;;;4958878;28;20619;-74
2023/08/07 00:26:16;;;;;;;5.47;1.60;;;15.60;99.90;;;;;;4963486;28;20659;-74
2023/08/07 00:28:41;;;;;;;3.90;1.57;;;15.60;99.90;;;;;;4967249;28;20941;-73
2023/08/07 00:31:07;;;;;;;6.07;1.50;;;15.50;99.90;;;;;;4973914;28;20574;-74
2023/08/07 00:33:33;;;;;;;7.43;1.60;;;15.50;99.90;;;;;;4973190;28;20203;-74
2023/08/07 00:35:58;;;;;;;4.23;1.63;;;15.50;99.90;;;;;;4965579;28;20179;-74
2023/08/07 00:38:24;;;;;;;5.23;1.57;;;15.50;99.90;;;;;;4969389;28;20184;-74
2023/08/07 00:40:50;;;;;;;5.87;2.13;;;15.50;99.90;;;;;;4936183;28;20176;-74
2023/08/07 00:43:15;;;;;;;6.73;1.60;;;15.50;99.90;;;;;;4972430;28;20183;-74
2023/08/07 00:45:43;;;;;;;11.30;2.43;;;15.50;99.90;;;;;;4951647;29;20219;-73
2023/08/07 00:48:10;;;;;;;5.60;1.40;;;15.50;99.90;;;;;;4962232;28;20202;-73
2023/08/07 00:50:37;;;;;;;4.30;1.43;;;15.40;99.90;;;;;;4972919;28;20645;-74
2023/08/07 00:53:04;;;;;;;7.80;2.20;;;15.50;99.90;;;;;;4971441;28;20630;-73
2023/08/07 00:55:30;;;;;;;8.30;1.87;;;15.50;99.90;;;;;;4938872;28;20588;-73
2023/08/07 00:57:58;;;;;;;7.70;1.60;;;15.40;99.90;;;;;;4954083;28;20627;-74
2023/08/07 01:00:24;;;;;;;5.37;1.77;;;15.40;99.90;;;;;;4972313;28;20587;-74
2023/08/07 01:02:51;;;;;;;9.33;1.80;;;15.40;99.90;;;;;;4972354;28;20595;-73
2023/08/07 01:05:18;;;;;;;11.03;1.70;;;15.40;99.90;;;;;;4938852;28;20636;-74
2023/08/07 01:08:03;;;;;;;6.80;1.77;;;15.40;99.90;;;;;;4973762;28;21212;-74
2023/08/07 01:10:47;;;;;;;4.60;2.30;;;15.40;99.90;;;;;;4964868;28;20607;-74
2023/08/07 01:13:22;;;;;;;8.47;1.57;;;15.40;99.90;;;;;;4971947;28;20638;-74
2023/08/07 01:15:55;;;;;;;4.17;1.67;;;15.40;99.90;;;;;;4967228;28;20596;-74
2023/08/07 01:18:22;;;;;;;4.30;2.00;;;15.40;99.90;;;;;;4944955;28;20642;-74
2023/08/07 01:20:47;;;;;;;5.47;1.83;;;15.40;99.90;;;;;;4951320;28;20588;-73
2023/08/07 01:23:13;;;;;;;5.60;1.63;;;15.40;99.90;;;;;;4924412;28;20967;-73
2023/08/07 01:25:39;;;;;;;5.43;1.57;;;15.40;99.90;;;;;;4933430;28;20184;-73
2023/08/07 01:28:32;;;;;;;4.77;1.50;;;15.40;99.90;;;;;;4960362;28;20204;-73
2023/08/07 01:31:03;;;;;;;9.23;2.37;;;15.40;99.90;;;;;;4972041;28;20637;-73
2023/08/07 01:33:39;;;;;;;11.70;2.57;;;15.50;99.90;;;;;;4974451;28;20634;-74
2023/08/07 01:36:07;;;;;;;7.00;2.00;;;15.50;99.90;;;;;;4964239;28;20596;-73
2023/08/07 01:38:33;;;;;;;7.33;2.10;;;15.50;99.90;;;;;;4939846;28;20614;-73
2023/08/07 01:41:00;;;;;;;4.17;1.77;;;15.50;99.90;;;;;;4971755;28;20583;-73
2023/08/07 01:43:27;;;;;;;4.90;1.70;;;15.50;99.90;;;;;;4971568;28;20637;-73
2023/08/07 01:45:53;;;;;;;3.80;1.50;;;15.50;99.90;;;;;;4971872;28;20957;-72
2023/08/07 01:48:18;;;;;;;6.67;1.80;;;15.50;99.90;;;;;;4974181;28;20653;-72
2023/08/07 01:50:44;;;;;;;12.30;1.87;;;15.60;99.90;;;;;;4971680;28;20219;-73
2023/08/07 01:53:10;;;;;;;5.20;1.73;;;15.60;99.90;;;;;;4963386;28;20298;-73
2023/08/07 01:55:38;;;;;;;6.90;1.70;;;15.60;99.90;;;;;;4961716;28;20584;-73
2023/08/07 01:58:04;;;;;;;5.30;1.73;;;15.60;99.90;;;;;;4967969;28;20615;-73
2023/08/07 02:00:30;;;;;;;5.93;2.17;;;15.60;99.90;;;;;;4971178;28;20599;-73
2023/08/07 02:02:55;;;;;;;13.00;2.00;;;15.60;99.90;;;;;;4972477;28;20270;-73
2023/08/07 02:05:21;;;;;;;7.13;1.63;;;15.70;99.90;;;;;;4972509;28;20682;-73
2023/08/07 02:07:47;;;;;;;8.03;1.93;;;15.70;99.90;;;;;;4966863;28;20207;-73
2023/08/07 02:10:12;;;;;;;9.77;2.33;;;15.70;99.90;;;;;;4970744;28;20180;-73
2023/08/07 02:12:38;;;;;;;7.43;1.70;;;15.70;99.90;;;;;;4972401;28;20562;-73
2023/08/07 02:15:05;;;;;;;6.83;1.63;;;15.70;99.90;;;;;;4971182;28;20634;-73
2023/08/07 02:17:31;;;;;;;5.53;1.80;;;15.70;99.90;;;;;;4970708;28;20634;-74
2023/08/07 02:19:57;;;;;;;5.77;1.53;;;15.70;99.90;;;;;;4963138;28;20591;-73
2023/08/07 02:22:23;;;;;;;5.37;1.80;;;15.70;99.90;;;;;;4969949;28;20595;-74
2023/08/07 02:24:48;;;;;;;6.47;1.70;;;15.70;99.90;;;;;;4965388;28;21046;-73
2023/08/07 02:27:14;;;;;;;4.47;1.57;;;15.70;99.90;;;;;;4964168;28;20702;-73
2023/08/07 02:29:40;;;;;;;7.07;1.77;;;15.80;99.90;;;;;;4947922;28;20175;-73
2023/08/07 02:32:06;;;;;;;9.90;1.60;;;15.80;99.90;;;;;;4970741;28;20172;-73
2023/08/07 02:34:32;;;;;;;4.43;1.47;;;15.80;99.90;;;;;;4970921;28;20180;-72
2023/08/07 02:36:59;;;;;;;5.07;1.80;;;15.80;99.90;;;;;;4970952;28;20647;-73
2023/08/07 02:39:25;;;;;;;8.20;1.63;;;15.80;99.90;;;;;;4970817;28;20588;-73
2023/08/07 02:41:51;;;;;;;6.27;1.77;;;15.80;99.90;;;;;;4965094;28;20168;-73
2023/08/07 02:44:17;;;;;;;6.53;2.07;;;15.80;99.90;;;;;;4968748;28;20579;-73
2023/08/07 02:46:43;;;;;;;10.10;3.03;;;15.80;99.90;;;;;;4971731;28;20630;-74
2023/08/07 02:49:09;;;;;;;3.93;1.60;;;15.70;99.90;;;;;;4955032;28;20607;-74
2023/08/07 02:51:35;;;;;;;7.90;1.70;;;15.60;99.90;;;;;;4952684;29;20639;-73
2023/08/07 02:54:01;;;;;;;5.57;2.30;;;15.60;99.90;;;;;;4951520;29;20679;-73
2023/08/07 02:56:26;;;;;;;4.97;2.10;;;15.50;99.90;;;;;;4951462;28;21181;-73
2023/08/07 02:58:52;;;;;;;5.37;2.27;;;15.40;99.90;;;;;;4952818;28;20584;-73
2023/08/07 03:01:21;;;;;;;7.50;2.10;;;15.40;99.90;;;;;;4952474;28;20176;-73
2023/08/07 03:03:47;;;;;;;4.00;2.43;;;15.30;99.90;;;;;;4951679;29;20203;-74
2023/08/07 03:06:12;;;;;;;5.47;2.00;;;15.30;99.90;;;;;;4952755;28;20591;-73
2023/08/07 03:08:38;;;;;;;3.70;1.53;;;15.20;99.90;;;;;;4951331;28;20355;-73
2023/08/07 03:11:04;;;;;;;6.33;1.90;;;15.20;99.90;;;;;;4951280;29;20588;-73
2023/08/07 03:13:30;;;;;;;6.10;2.70;;;15.10;99.90;;;;;;4951543;28;20216;-73
2023/08/07 03:16:05;;;;;;;4.40;1.70;;;15.10;99.90;;;;;;4951464;28;20959;-74
2023/08/07 03:18:31;;;;;;;8.20;1.57;;;15.10;99.90;;;;;;4955260;29;20180;-73
2023/08/07 03:20:57;;;;;;;4.60;1.60;;;15.00;99.90;;;;;;4955286;29;20635;-73
2023/08/07 03:23:24;;;;;;;9.07;2.80;;;15.00;99.90;;;;;;4955555;28;20710;-74
2023/08/07 03:25:51;;;;;;;5.93;1.70;;;15.00;99.90;;;;;;4956510;29;20657;-73
2023/08/07 03:28:17;;;;;;;7.93;1.67;;;15.00;99.90;;;;;;4956170;28;20975;-73
2023/08/07 03:30:44;;;;;;;4.20;1.57;;;15.00;99.90;;;;;;4955105;29;20621;-73
2023/08/07 03:33:12;;;;;;;9.10;1.90;;;15.00;99.90;;;;;;4954732;28;20750;-73
2023/08/07 03:35:39;;;;;;;4.43;1.60;;;15.00;99.90;;;;;;4952286;29;20580;-73
2023/08/07 03:38:05;;;;;;;5.77;1.67;;;15.00;99.90;;;;;;4954751;28;20961;-73
2023/08/07 03:40:31;;;;;;;3.60;1.57;;;15.00;99.90;;;;;;4955010;28;20653;-74
2023/08/07 03:42:57;;;;;;;6.90;2.37;;;15.00;99.90;;;;;;4954898;29;20180;-73
2023/08/07 03:45:24;;;;;;;6.10;2.20;;;14.90;99.90;;;;;;4952845;29;20267;-74
2023/08/07 03:47:49;;;;;;;8.83;2.17;;;15.00;99.90;;;;;;4919082;29;20711;-73
2023/08/07 03:50:15;;;;;;;5.77;2.20;;;15.00;99.90;;;;;;4920210;29;20724;-73
2023/08/07 03:52:41;;;;;;;5.83;2.23;;;14.90;99.90;;;;;;4938415;29;20238;-73
2023/08/07 03:55:07;;;;;;;4.30;1.90;;;14.90;99.90;;;;;;4954908;28;20200;-73
2023/08/07 03:57:32;;;;;;;4.93;1.73;;;14.90;99.90;;;;;;4954445;28;20204;-73
2023/08/07 03:59:59;;;;;;;5.20;1.90;;;15.00;99.90;;;;;;4954755;28;20190;-74
2023/08/07 04:02:29;;;;;;;8.63;2.03;;;15.00;99.90;;;;;;4957219;28;20588;-74
2023/08/07 04:04:55;;;;;;;4.90;2.10;;;15.00;99.90;;;;;;4955993;29;20588;-73
2023/08/07 04:07:20;;;;;;;5.80;2.77;;;15.00;99.90;;;;;;4954292;28;20627;-74
2023/08/07 04:09:46;;;;;;;3.77;1.33;;;15.00;99.90;;;;;;4955787;28;20180;-73
2023/08/07 04:12:12;;;;;;;7.20;1.70;;;15.00;99.90;;;;;;4954368;28;20208;-73
2023/08/07 04:14:38;;;;;;;5.40;1.40;;;15.00;99.90;;;;;;4954507;29;20263;-73
2023/08/07 04:17:04;;;;;;;4.00;2.17;;;15.00;99.90;;;;;;4955549;28;20630;-73
2023/08/07 04:19:29;;;;;;;3.70;1.60;;;15.00;99.90;;;;;;4953815;28;20572;-74
2023/08/07 04:21:55;;;;;;;5.20;2.27;;;15.00;99.90;;;;;;4954291;29;20668;-74
2023/08/07 04:24:21;;;;;;;3.67;1.60;;;15.00;99.90;;;;;;4955390;28;20190;-74
2023/08/07 04:26:46;;;;;;;4.10;2.10;;;15.00;99.90;;;;;;4954179;28;20219;-73
2023/08/07 04:29:12;;;;;;;5.73;1.90;;;15.00;99.90;;;;;;4953301;28;20565;-73
2023/08/07 04:31:38;;;;;;;6.37;1.87;;;15.00;99.90;;;;;;4921837;29;20188;-73
2023/08/07 04:34:04;;;;;;;9.90;2.57;;;15.00;99.90;;;;;;4953903;29;20200;-73
2023/08/07 04:36:30;;;;;;;6.73;1.67;;;14.90;99.90;;;;;;4954002;28;20268;-73
2023/08/07 04:38:56;;;;;;;4.33;1.70;;;14.90;99.90;;;;;;4957594;28;20576;-73
2023/08/07 04:41:22;;;;;;;4.60;1.50;;;14.90;99.90;;;;;;4954810;28;20611;-73
2023/08/07 04:43:48;;;;;;;6.33;1.77;;;14.90;99.90;;;;;;4955055;28;20180;-73
2023/08/07 04:46:14;;;;;;;4.43;1.57;;;14.90;99.90;;;;;;4952332;29;20961;-73
2023/08/07 04:48:40;;;;;;;4.07;2.07;;;14.90;99.90;;;;;;4954761;28;20949;-73
2023/08/07 04:51:06;;;;;;;6.13;2.50;;;14.90;99.90;;;;;;4953337;29;20587;-75
2023/08/07 04:53:32;;;;;;;4.70;2.00;;;14.90;99.90;;;;;;4937774;29;20638;-73
2023/08/07 04:55:59;;;;;;;8.10;2.00;;;15.00;99.90;;;;;;4954794;28;20263;-73
2023/08/07 04:58:25;;;;;;;5.43;1.93;;;15.00;99.90;;;;;;4953367;28;20207;-73
2023/08/07 05:00:57;;;;;;;11.77;2.57;;;15.00;99.90;;;;;;4954740;28;20954;-73
2023/08/07 05:03:24;;;;;;;4.33;1.70;;;15.00;99.90;;;;;;4951928;29;20220;-73
2023/08/07 05:05:50;;;;;;;6.90;1.80;;;15.10;99.90;;;;;;4954194;28;20588;-74
2023/08/07 05:08:16;;;;;;;5.60;1.83;;;15.10;99.90;;;;;;4953353;28;21210;-74
2023/08/07 05:10:42;;;;;;;5.57;2.40;;;15.10;99.90;;;;;;4953352;29;20632;-74
2023/08/07 05:13:08;;;;;;;5.90;2.20;;;15.20;99.90;;;;;;4954433;28;20676;-74
2023/08/07 05:15:34;;;;;;;6.90;2.40;;;15.20;99.90;;;;;;4956399;28;20188;-74
2023/08/07 05:18:00;;;;;;;4.00;2.27;;;15.20;99.90;;;;;;4954053;28;20196;-73
2023/08/07 05:20:26;;;;;;;6.73;2.83;;;15.20;99.90;;;;;;4953549;29;20187;-73
2023/08/07 05:22:52;;;;;;;7.40;1.60;;;15.30;99.90;;;;;;4956607;29;20580;-73
2023/08/07 05:25:18;;;;;;;4.83;1.97;;;15.30;99.90;;;;;;4958940;28;20599;-73
2023/08/07 05:27:45;;;;;;;3.13;2.00;;;15.30;99.90;;;;;;4956528;28;20271;-73
2023/08/07 05:30:11;;;;;;;5.33;1.83;;;15.30;99.90;;;;;;4954050;29;20181;-73
2023/08/07 05:32:37;;;;;;;8.63;2.50;;;15.40;99.90;;;;;;4942820;29;20647;-74
2023/08/07 05:35:07;;;;;;;7.83;1.97;;;15.40;99.90;;;;;;4963513;28;20580;-75
2023/08/07 05:37:34;;;;;;;5.00;1.77;;;15.40;99.90;;;;;;4954806;28;20635;-73
2023/08/07 05:40:00;;;;;;;5.43;1.77;;;15.40;99.90;;;;;;4952586;28;20639;-73
2023/08/07 05:42:28;;;;;;;5.30;1.77;;;15.50;99.90;;;;;;4952817;29;20610;-73
2023/08/07 05:44:53;;;;;;;5.33;2.50;;;15.50;99.90;;;;;;4953042;29;20596;-74
2023/08/07 05:47:19;;;;;;;5.83;2.07;;;15.50;99.90;;;;;;4952726;28;20751;-73
2023/08/07 05:49:45;;;;;;;7.23;2.27;;;15.60;99.90;;;;;;4952730;28;20759;-73
2023/08/07 05:52:11;;;;;;;4.30;1.77;;;15.60;99.90;;;;;;4954295;28;20634;-74
2023/08/07 05:54:37;;;;;;;6.17;1.60;;;15.60;99.90;;;;;;4952423;29;20180;-73
2023/08/07 05:57:03;;;;;;;6.57;2.43;;;15.60;99.90;;;;;;4951765;28;20200;-73
2023/08/07 05:59:28;;;;;;;6.03;2.40;;;15.60;99.90;;;;;;4952546;29;20663;-73
2023/08/07 06:01:54;;;;;;;13.50;1.90;;;15.60;99.90;;;;;;4954452;28;20963;-73
2023/08/07 06:04:21;;;;;;;5.10;1.87;;;15.60;99.90;;;;;;4953127;28;20651;-73
2023/08/07 06:06:47;;;;;;;4.10;1.70;;;15.60;99.90;;;;;;4953083;28;20623;-73
2023/08/07 06:09:15;;;;;;;6.60;1.60;;;15.60;99.90;;;;;;4935773;29;20631;-73
2023/08/07 06:11:41;;;;;;;3.80;1.60;;;15.60;99.90;;;;;;4949054;28;20591;-73
2023/08/07 06:14:07;;;;;;;4.87;1.83;;;15.60;99.90;;;;;;4946914;28;20729;-74
2023/08/07 06:16:33;;;;;;;5.97;1.80;;;15.60;99.90;;;;;;4952848;28;21174;-73
2023/08/07 06:18:59;;;;;;;5.43;2.50;;;15.50;99.90;;;;;;4953152;28;20184;-72
2023/08/07 06:21:25;;;;;;;5.80;2.00;;;15.50;99.90;;;;;;4953139;28;21207;-73
2023/08/07 06:23:51;;;;;;;5.90;1.60;;;15.50;99.90;;;;;;4952252;29;20184;-72
2023/08/07 06:26:17;;;;;;;8.20;1.70;;;15.40;99.90;;;;;;4951740;28;20271;-72
2023/08/07 06:28:43;;;;;;;4.17;1.47;;;15.40;99.90;;;;;;4953404;28;20691;-73
2023/08/07 06:31:10;;;;;;;4.73;1.80;;;15.40;99.90;;;;;;4951755;29;20668;-72
2023/08/07 06:33:37;;;;;;;4.67;1.77;;;15.30;99.90;;;;;;4967521;28;20672;-72
2023/08/07 06:36:04;;;;;;;8.30;1.77;;;15.30;99.90;;;;;;4951736;29;20588;-73
2023/08/07 06:38:30;;;;;;;5.03;2.03;;;15.30;99.90;;;;;;4951763;29;20650;-73
2023/08/07 06:40:56;;;;;;;5.43;1.60;;;15.20;99.90;;;;;;4951966;29;20584;-73
2023/08/07 06:43:22;;;;;;;5.30;1.50;;;15.20;99.90;;;;;;4953305;28;20648;-73
2023/08/07 06:45:52;;;;;;;10.27;1.90;;;15.20;99.90;;;;;;4952099;29;20584;-73
2023/08/07 06:48:18;;;;;;;3.93;1.90;;;15.20;99.90;;;;;;4953386;28;20287;-73
2023/08/07 06:50:45;;;;;;;6.03;2.33;;;15.10;99.90;;;;;;4951513;28;20592;-74
2023/08/07 06:53:11;;;;;;;4.77;2.10;;;15.10;99.90;;;;;;4949262;28;20686;-73
2023/08/07 06:55:37;;;;;;;5.50;1.67;;;15.00;99.90;;;;;;4950991;29;21255;-73
2023/08/07 06:58:03;;;;;;;6.10;2.97;;;15.00;99.90;;;;;;4955615;28;20754;-74
2023/08/07 07:00:28;;;;;;;3.93;1.77;;;15.00;99.90;;;;;;4951624;29;20184;-74
2023/08/07 07:02:54;;;;;;;6.67;2.40;;;15.00;99.90;;;;;;4952363;28;20542;-73
2023/08/07 07:05:20;;;;;;;10.90;3.00;;;15.00;99.90;;;;;;4918999;29;20273;-74
2023/08/07 07:07:46;;;;;;;4.10;2.13;;;15.00;99.90;;;;;;4950801;28;20192;-73
2023/08/07 07:10:12;;;;;;;4.03;1.23;;;14.90;99.90;;;;;;4948702;29;20177;-73
2023/08/07 07:12:38;;;;;;;4.70;1.97;;;14.90;99.90;;;;;;4951874;28;20207;-73
2023/08/07 07:15:04;;;;;;;7.23;2.30;;;14.90;99.90;;;;;;4952855;28;20584;-73
2023/08/07 07:17:29;;;;;;;10.03;1.87;;;14.90;99.90;;;;;;4951249;28;20283;-73
2023/08/07 07:19:56;;;;;;;4.43;1.87;;;14.90;99.90;;;;;;4951163;28;21297;-73
2023/08/07 07:22:22;;;;;;;4.80;2.20;;;14.90;99.90;;;;;;4951957;28;20254;-73
2023/08/07 07:24:48;;;;;;;5.60;2.07;;;14.90;99.90;;;;;;4952470;28;20592;-73
2023/08/07 07:27:14;;;;;;;5.93;2.37;;;14.90;99.90;;;;;;4951464;28;20637;-73
2023/08/07 07:29:39;;;;;;;3.70;1.87;;;14.90;99.90;;;;;;4951111;29;20191;-73
2023/08/07 07:32:06;;;;;;;4.60;1.60;;;14.90;99.90;;;;;;4950911;28;20610;-73
2023/08/07 07:34:33;;;;;;;4.97;2.33;;;14.90;99.90;;;;;;4952392;28;20677;-73
2023/08/07 07:36:58;;;;;;;5.80;1.43;;;14.90;99.90;;;;;;4954173;28;20656;-73
2023/08/07 07:39:24;;;;;;;7.87;1.87;;;14.90;99.90;;;;;;4951206;29;20588;-72
2023/08/07 07:41:50;;;;;;;5.20;1.83;;;14.90;99.90;;;;;;4955970;28;20180;-73
2023/08/07 07:44:15;;;;;;;6.20;2.13;;;15.00;99.90;;;;;;4952398;28;20538;-72
2023/08/07 07:46:41;;;;;;;5.47;2.17;;;15.00;99.90;;;;;;4950952;28;20291;-73
2023/08/07 07:49:07;;;;;;;6.87;2.13;;;15.00;99.90;;;;;;4951100;28;20211;-73
2023/08/07 07:51:35;;;;;;;7.67;1.83;;;15.10;99.90;;;;;;4952044;28;20184;-73
2023/08/07 07:54:00;;;;;;;5.20;1.77;;;15.10;99.90;;;;;;4950644;28;20212;-73
2023/08/07 07:56:26;;;;;;;6.70;1.93;;;15.20;99.90;;;;;;4934773;28;20616;-73
2023/08/07 07:58:52;;;;;;;5.67;1.93;;;15.20;99.90;;;;;;4950820;29;20611;-73
2023/08/07 08:01:18;;;;;;;4.63;1.80;;;15.20;99.90;;;;;;4951950;28;20271;-73
2023/08/07 08:03:43;;;;;;;4.00;1.37;;;15.30;99.90;;;;;;4953430;28;20722;-73
2023/08/07 08:06:14;;;;;;;6.33;1.83;;;15.40;99.90;;;;;;4972733;23;20248;-76
2023/08/07 08:08:42;;;;;;;5.80;1.93;;;15.40;99.90;;;;;;4956839;28;20188;-76
2023/08/07 08:11:08;;;;;;;4.90;1.63;;;15.50;99.90;;;;;;4955024;28;20588;-76
2023/08/07 08:13:35;;;;;;;5.73;1.83;;;15.50;99.90;;;;;;4955314;28;20993;-76
2023/08/07 08:16:01;;;;;;;3.63;1.63;;;15.60;99.90;;;;;;4975279;28;20634;-76
2023/08/07 08:18:27;;;;;;;5.53;2.07;;;15.70;99.90;;;;;;4966515;28;21145;-76
2023/08/07 08:20:54;;;;;;;5.27;1.20;;;15.80;99.90;;;;;;4945838;28;20684;-76
2023/08/07 08:23:19;;;;;;;8.53;2.43;;;15.80;99.90;;;;;;4953944;28;20186;-76
2023/08/07 08:25:45;;;;;;;6.60;1.60;;;15.90;99.90;;;;;;4953873;28;20982;-77
2023/08/07 08:28:11;;;;;;;4.60;2.03;;;16.00;99.90;;;;;;4952985;28;20283;-76
2023/08/07 08:30:37;;;;;;;3.97;1.53;;;16.10;99.90;;;;;;4937897;28;20275;-76
2023/08/07 08:33:02;;;;;;;4.90;1.43;;;16.20;99.90;;;;;;4953720;28;20595;-75
2023/08/07 08:35:28;;;;;;;4.23;1.80;;;16.30;99.90;;;;;;4954039;28;20247;-75
2023/08/07 08:37:54;;;;;;;4.03;1.93;;;16.30;99.90;;;;;;4953618;28;20172;-76
2023/08/07 08:40:20;;;;;;;9.53;2.13;;;16.30;99.90;;;;;;4953819;28;20183;-76
2023/08/07 08:42:46;;;;;;;7.87;2.00;;;16.30;99.90;;;;;;4953362;28;20180;-77
2023/08/07 08:45:15;;;;;;;6.60;1.87;;;16.30;99.90;;;;;;4953498;28;20663;-77
2023/08/07 08:47:46;;;;;;;12.63;2.73;;;16.30;99.90;;;;;;4953364;28;20599;-77
2023/08/07 08:50:14;;;;;;;7.83;1.80;;;16.40;99.90;;;;;;4937773;29;20599;-77
2023/08/07 08:52:44;;;;;;;5.20;2.03;;;16.40;99.90;;;;;;4957511;28;20644;-77
2023/08/07 08:55:12;;;;;;;4.13;2.20;;;16.40;99.90;;;;;;4952751;28;20619;-76
2023/08/07 08:57:40;;;;;;;15.13;2.10;;;16.50;99.90;;;;;;4952959;28;20584;-76
2023/08/07 09:00:15;;;;;;;11.00;2.13;;;16.60;99.90;;;;;;4961329;28;20583;-76
2023/08/07 09:02:45;;;;;;;5.80;1.40;;;16.60;99.90;;;;;;4959037;28;20622;-77
2023/08/07 09:05:11;;;;;;;8.27;1.70;;;16.60;99.90;;;;;;4937007;29;20627;-76
2023/08/07 09:07:38;;;;;;;5.10;2.10;;;16.70;99.90;;;;;;4960938;28;20575;-77
2023/08/07 09:10:04;;;;;;;4.57;2.03;;;16.80;99.90;;;;;;4954470;28;20177;-77
2023/08/07 09:12:33;;;;;;;7.13;2.00;;;16.90;99.90;;;;;;4952784;28;20631;-76
2023/08/07 09:15:01;;;;;;;3.50;1.70;;;17.00;99.90;;;;;;4949939;28;21023;-76
2023/08/07 09:17:35;;;;;;;7.83;1.90;;;17.10;99.90;;;;;;4958046;28;20577;-76
2023/08/07 09:20:01;;;;;;;8.67;1.90;;;17.20;99.90;;;;;;4961595;28;20581;-77
2023/08/07 09:22:26;;;;;;;6.13;1.60;;;17.30;99.90;;;;;;4960586;28;20691;-77
2023/08/07 09:24:52;;;;;;;5.20;1.50;;;17.30;99.90;;;;;;4956820;28;20682;-77
2023/08/07 09:27:18;;;;;;;6.63;1.50;;;17.40;99.90;;;;;;4957675;28;20172;-78
2023/08/07 09:29:45;;;;;;;6.13;1.63;;;17.50;99.90;;;;;;4955420;28;20235;-76
2023/08/07 09:32:14;;;;;;;4.77;1.40;;;17.50;99.90;;;;;;4952524;28;20180;-77
2023/08/07 09:34:41;;;;;;;6.50;1.57;;;17.60;99.90;;;;;;4952521;28;20602;-77
2023/08/07 09:37:10;;;;;;;5.70;1.60;;;17.70;99.90;;;;;;4957237;28;20639;-77
2023/08/07 09:39:36;;;;;;;6.63;1.60;;;17.80;99.90;;;;;;4964472;28;20631;-78
2023/08/07 09:42:03;;;;;;;4.43;1.80;;;17.90;99.90;;;;;;4952264;28;21188;-77
2023/08/07 09:44:36;;;;;;;3.50;1.03;;;18.00;99.90;;;;;;4954058;28;20599;-78
2023/08/07 09:47:12;;;;;;;5.77;1.80;;;18.10;99.90;;;;;;4953749;28;20612;-80
2023/08/07 09:49:38;;;;;;;3.20;1.17;;;18.20;99.90;;;;;;4961608;28;20595;-78
2023/08/07 09:52:07;;;;;;;4.13;1.13;;;18.40;99.90;;;;;;4952451;28;21169;-78
2023/08/07 09:54:33;;;;;;;6.00;1.47;;;18.60;99.90;;;;;;4952413;28;20604;-79
2023/08/07 09:57:04;;;;;;;4.47;1.10;;;18.60;99.90;;;;;;4953944;28;21199;-78
2023/08/07 09:59:34;;;;;;;3.57;1.00;;;18.60;99.90;;;;;;4953908;28;20587;-76
2023/08/07 10:02:04;;;;;;;3.00;1.20;;;18.60;99.90;;;;;;4961025;28;20576;-78
2023/08/07 10:04:30;;;;;;;3.80;1.10;;;18.70;99.90;;;;;;4952848;28;20584;-78
2023/08/07 10:06:57;;;;;;;2.53;1.13;;;18.70;99.90;;;;;;4959491;28;20645;-79
2023/08/07 10:09:23;;;;;;;5.50;1.20;;;18.90;99.90;;;;;;4929551;28;20612;-78
2023/08/07 10:11:50;;;;;;;4.33;2.07;;;19.00;99.90;;;;;;4967467;28;20675;-78
2023/08/07 10:14:19;;;;;;;4.07;1.47;;;19.10;99.90;;;;;;4969935;28;21057;-79
2023/08/07 10:16:48;;;;;;;4.57;1.07;;;19.20;99.90;;;;;;4935680;28;20625;-80
2023/08/07 10:19:14;;;;;;;6.57;1.30;;;19.40;99.90;;;;;;4952018;28;20688;-79
2023/08/07 10:21:42;;;;;;;6.73;1.20;;;19.60;99.90;;;;;;4951729;28;20646;-76
2023/08/07 10:24:10;;;;;;;3.93;1.37;;;19.70;99.90;;;;;;4959005;28;20591;-78
2023/08/07 10:26:42;;;;;;;5.03;1.53;;;19.80;99.90;;;;;;4955491;28;20631;-78
2023/08/07 10:29:17;;;;;;;6.73;1.47;;;20.20;99.90;;;;;;4955731;28;20591;-77
2023/08/07 10:31:45;;;;;;;2.43;0.90;;;21.00;99.90;;;;;;4953814;28;20627;-77
2023/08/07 10:34:11;;;;;;;4.90;1.70;;;22.10;99.90;;;;;;4951852;28;21139;-76
2023/08/07 10:36:40;;;;;;;5.77;1.20;;;23.00;99.90;;;;;;4960719;28;20623;-77
2023/08/07 10:39:14;;;;;;;4.73;1.00;;;23.60;99.90;;;;;;4953734;28;20592;-77
2023/08/07 10:41:47;;;;;;;4.13;1.00;;;24.10;99.90;;;;;;4961739;28;20587;-76
2023/08/07 10:44:20;;;;;;;4.00;1.03;;;24.70;99.90;;;;;;4957860;28;20592;-77
2023/08/07 10:46:53;;;;;;;4.40;0.80;;;25.40;99.90;;;;;;4952897;28;21019;-77
2023/08/07 10:49:39;;;;;;;6.10;1.07;;;26.10;99.90;;;;;;4957077;28;20591;-78
2023/08/07 10:52:12;;;;;;;3.87;1.10;;;26.70;99.90;;;;;;4951266;28;20595;-79
2023/08/07 10:54:42;;;;;;;5.57;1.00;;;27.40;99.90;;;;;;4951528;28;20594;-78
2023/08/07 10:57:13;;;;;;;2.47;0.90;;;27.80;99.90;;;;;;4944588;28;20623;-77
2023/08/07 10:59:44;;;;;;;3.40;0.90;;;28.10;99.90;;;;;;4958943;28;20589;-78
2023/08/07 11:02:22;;;;;;;2.53;1.20;;;28.20;99.90;;;;;;4952364;28;20588;-78
2023/08/07 11:04:48;;;;;;;5.27;1.10;;;28.10;99.90;;;;;;4960630;28;20588;-78
2023/08/07 11:07:24;;;;;;;3.00;1.20;;;27.90;99.90;;;;;;4952592;28;20672;-77
2023/08/07 11:09:50;;;;;;;3.20;0.90;;;27.50;99.90;;;;;;4952882;28;20204;-79
2023/08/07 11:12:16;;;;;;;3.00;0.80;;;27.10;99.90;;;;;;4957769;28;21051;-77
2023/08/07 11:14:41;;;;;;;3.13;0.90;;;26.90;99.90;;;;;;4955422;28;20672;-77
2023/08/07 11:17:08;;;;;;;1.63;0.97;;;26.80;99.90;;;;;;4963498;28;20284;-78
2023/08/07 11:19:33;;;;;;;2.73;0.90;;;26.90;99.90;;;;;;4958618;28;20235;-77
2023/08/07 11:22:01;;;;;;;2.40;0.87;;;27.00;99.90;;;;;;4953776;28;20945;-76
2023/08/07 11:24:27;;;;;;;3.47;1.00;;;27.20;99.90;;;;;;4951155;28;20184;-77
2023/08/07 11:26:56;;;;;;;2.20;0.90;;;27.40;99.90;;;;;;4957717;28;20629;-77
2023/08/07 11:29:24;;;;;;;2.70;0.80;;;27.40;99.90;;;;;;4950828;29;20604;-77
2023/08/07 11:31:53;;;;;;;4.50;0.93;;;27.60;99.90;;;;;;4954592;28;21154;-79
2023/08/07 11:34:19;;;;;;;2.53;0.90;;;27.70;99.90;;;;;;4963172;28;20652;-78
2023/08/07 11:36:45;;;;;;;2.97;0.97;;;27.80;99.90;;;;;;4953959;28;20620;-77
2023/08/07 11:39:12;;;;;;;4.00;0.97;;;27.70;99.90;;;;;;4967860;28;20590;-77
2023/08/07 11:41:38;;;;;;;4.23;1.00;;;27.50;99.90;;;;;;4966307;28;20601;-77
2023/08/07 11:44:04;;;;;;;2.63;0.90;;;27.40;99.90;;;;;;4958269;28;20996;-78
2023/08/07 11:46:30;;;;;;;4.33;1.10;;;27.10;99.90;;;;;;4968861;28;20638;-79
2023/08/07 11:48:56;;;;;;;3.00;1.00;;;26.80;99.90;;;;;;4954236;28;20697;-76
2023/08/07 11:51:22;;;;;;;5.57;0.90;;;26.50;99.90;;;;;;4957528;28;20623;-76
2023/08/07 11:53:49;;;;;;;3.10;0.90;;;26.40;99.90;;;;;;4955143;28;20643;-76
2023/08/07 11:56:14;;;;;;;5.53;1.10;;;26.40;99.90;;;;;;4958197;28;20638;-76
2023/08/07 11:58:42;;;;;;;1.70;0.97;;;26.50;99.90;;;;;;4962721;28;20677;-76
2023/08/07 12:01:16;;;;;;;3.50;1.00;;;26.60;99.90;;;;;;4954253;28;20175;-76
2023/08/07 12:03:50;;;;;;;3.73;1.43;;;26.70;99.90;;;;;;4954189;29;20679;-75
2023/08/07 12:06:16;;;;;;;2.93;1.13;;;26.70;99.80;;;;;;4960302;28;20636;-76
2023/08/07 12:08:48;;;;;;;3.00;1.10;;;26.80;99.90;;;;;;4972624;28;20586;-76
2023/08/07 12:11:14;;;;;;;5.10;1.10;;;26.80;99.50;;;;;;4955247;28;20592;-75
2023/08/07 12:13:42;;;;;;;6.70;1.03;;;26.90;99.30;;;;;;4954232;28;20684;-76
2023/08/07 12:16:08;;;;;;;3.63;0.90;;;26.90;98.60;;;;;;4947745;28;20612;-76
2023/08/07 12:18:35;;;;;;;3.00;1.00;;;26.80;97.80;;;;;;4962093;28;20617;-75
2023/08/07 12:21:06;;;;;;;2.20;1.00;;;26.70;98.30;;;;;;4953781;28;20685;-75
2023/08/07 12:23:36;;;;;;;4.27;1.03;;;26.70;96.00;;;;;;4955504;28;20665;-75
2023/08/07 12:26:37;;;;;;;3.07;0.70;;;26.60;95.50;;;;;;4955087;28;20729;-75
2023/08/07 12:29:29;;;;;;;3.10;0.80;;;26.70;96.90;;;;;;4953916;28;20614;-75
2023/08/07 12:32:29;;;;;;;2.37;0.97;;;26.70;96.00;;;;;;4940367;29;20591;-75
2023/08/07 12:34:55;;;;;;;5.57;1.23;;;26.70;95.70;;;;;;4956171;28;20634;-76
2023/08/07 12:37:45;;;;;;;2.90;0.90;;;26.80;93.70;;;;;;4958668;28;20687;-77
2023/08/07 12:40:11;;;;;;;3.40;1.10;;;26.70;93.70;;;;;;4965088;28;20194;-75
2023/08/07 12:42:37;;;;;;;2.53;0.90;;;26.60;93.60;;;;;;4961981;28;20576;-77
2023/08/07 12:45:03;;;;;;;2.63;0.90;;;26.50;94.20;;;;;;4955550;28;20185;-76
2023/08/07 12:47:29;;;;;;;2.33;0.90;;;26.50;92.90;;;;;;4954440;28;20662;-76